Time;durP1;ratioP1;P1;durP2;ratioP2;P2;SDS_P1;SDS_P2;PMS_P1;PMS_P2;Temp;Humidity;BMP_temperature;BMP_pressure;BME280_temperature;BME280_humidity;BME280_pressure;Samples;Min_cycle;Max_cycle;Signal;HPM_P1;HPM_P2
2024/03/14 00:02:11;;;;;;;12.50;11.10;;;10.20;1.00;;;;;;5068937;28;20502;-75
2024/03/14 00:04:39;;;;;;;10.97;9.83;;;10.20;1.00;;;;;;5066638;28;20463;-75
2024/03/14 00:07:07;;;;;;;11.37;10.17;;;10.20;1.00;;;;;;5062950;28;20855;-73
2024/03/14 00:09:34;;;;;;;11.53;10.40;;;10.10;1.00;;;;;;5060228;28;20482;-71
2024/03/14 00:12:02;;;;;;;12.00;10.70;;;10.10;1.00;;;;;;5067501;27;20483;-70
2024/03/14 00:14:30;;;;;;;12.17;10.87;;;10.20;1.00;;;;;;5066307;28;20455;-72
2024/03/14 00:16:57;;;;;;;10.73;9.57;;;10.20;1.00;;;;;;5069843;27;20457;-73
2024/03/14 00:19:24;;;;;;;12.10;10.83;;;10.20;1.00;;;;;;5069060;27;20453;-72
2024/03/14 00:21:51;;;;;;;11.83;10.57;;;10.20;1.00;;;;;;5069729;27;20559;-72
2024/03/14 00:24:19;;;;;;;13.10;11.77;;;10.20;1.00;;;;;;5074648;28;20472;-70
2024/03/14 00:26:46;;;;;;;11.27;10.10;;;10.30;1.00;;;;;;5067158;27;20454;-71
2024/03/14 00:29:13;;;;;;;11.43;10.33;;;10.40;1.00;;;;;;5050357;28;20550;-70
2024/03/14 00:31:40;;;;;;;12.57;11.30;;;10.40;1.00;;;;;;5048786;28;20471;-73
2024/03/14 00:34:08;;;;;;;10.70;9.60;;;10.50;1.00;;;;;;5052748;28;20475;-71
2024/03/14 00:36:37;;;;;;;12.63;10.27;;;10.50;1.00;;;;;;5068108;28;20560;-71
2024/03/14 00:39:06;;;;;;;10.97;9.87;;;10.50;1.00;;;;;;5052537;28;20454;-72
2024/03/14 00:41:33;;;;;;;11.83;10.63;;;10.60;1.00;;;;;;5051022;28;20498;-70
2024/03/14 00:44:01;;;;;;;11.30;10.30;;;10.60;1.00;;;;;;5059562;27;21750;-70
2024/03/14 00:46:28;;;;;;;10.90;9.80;;;10.60;1.00;;;;;;5065305;28;20460;-70
2024/03/14 00:48:55;;;;;;;10.13;9.13;;;10.50;1.00;;;;;;5072143;27;20418;-70
2024/03/14 00:51:22;;;;;;;10.93;9.83;;;10.50;1.00;;;;;;5068405;27;20553;-71
2024/03/14 00:53:51;;;;;;;11.67;10.57;;;10.50;1.00;;;;;;5069209;28;20965;-73
2024/03/14 00:56:18;;;;;;;12.30;10.13;;;10.60;1.00;;;;;;5068752;27;20454;-70
2024/03/14 00:58:45;;;;;;;10.83;9.73;;;10.60;1.00;;;;;;5071142;27;20453;-69
2024/03/14 01:01:12;;;;;;;12.63;10.40;;;10.60;1.00;;;;;;5068636;27;20549;-72
2024/03/14 01:03:39;;;;;;;11.00;9.90;;;10.60;1.00;;;;;;5070813;27;20992;-71
2024/03/14 01:06:11;;;;;;;10.50;9.40;;;10.70;1.00;;;;;;5070396;27;20478;-71
2024/03/14 01:08:38;;;;;;;10.60;9.50;;;10.70;1.00;;;;;;5076811;27;20446;-69
2024/03/14 01:11:06;;;;;;;10.90;9.80;;;10.70;1.00;;;;;;5073255;27;20535;-70
2024/03/14 01:13:33;;;;;;;13.00;9.60;;;10.70;1.00;;;;;;5072359;27;20449;-69
2024/03/14 01:16:00;;;;;;;12.93;11.23;;;10.70;1.00;;;;;;5055715;28;21959;-75
2024/03/14 01:18:27;;;;;;;12.40;10.73;;;10.60;1.00;;;;;;5053816;28;20928;-75
2024/03/14 01:20:54;;;;;;;13.60;11.63;;;10.40;1.00;;;;;;5055008;28;20467;-76
2024/03/14 01:23:22;;;;;;;14.53;12.10;;;10.30;1.00;;;;;;5052630;28;20451;-74
2024/03/14 01:25:49;;;;;;;11.63;10.40;;;10.10;1.00;;;;;;5052647;28;21741;-72
2024/03/14 01:28:16;;;;;;;12.40;11.20;;;10.00;1.00;;;;;;5052976;28;20462;-74
2024/03/14 01:30:43;;;;;;;13.00;11.63;;;9.90;1.00;;;;;;5053302;28;20539;-74
2024/03/14 01:33:10;;;;;;;14.17;12.60;;;9.80;1.00;;;;;;5072971;27;20468;-74
2024/03/14 01:35:36;;;;;;;14.50;12.87;;;9.70;1.00;;;;;;5062431;28;20536;-74
2024/03/14 01:38:03;;;;;;;13.70;12.30;;;9.60;1.00;;;;;;5069167;28;20505;-76
2024/03/14 01:40:31;;;;;;;14.97;13.40;;;9.60;1.00;;;;;;5074489;28;20912;-71
2024/03/14 01:42:58;;;;;;;15.93;13.87;;;9.50;1.00;;;;;;5070271;28;20454;-73
2024/03/14 01:45:25;;;;;;;13.50;12.03;;;9.40;1.00;;;;;;5069604;28;20490;-76
2024/03/14 01:47:52;;;;;;;14.30;12.67;;;9.40;1.00;;;;;;5066583;28;21001;-74
2024/03/14 01:50:19;;;;;;;14.60;13.13;;;9.30;1.00;;;;;;5070842;28;21035;-73
2024/03/14 01:52:46;;;;;;;15.00;12.80;;;9.30;1.00;;;;;;5081007;27;20515;-74
2024/03/14 01:55:14;;;;;;;17.00;14.27;;;9.20;1.00;;;;;;5064491;27;20519;-77
2024/03/14 01:57:42;;;;;;;15.13;13.60;;;9.20;1.00;;;;;;5073144;28;20433;-75
2024/03/14 02:00:11;;;;;;;16.13;14.43;;;9.20;1.00;;;;;;5074462;27;21067;-74
2024/03/14 02:02:38;;;;;;;15.87;14.27;;;9.10;1.00;;;;;;5088859;27;20457;-74
2024/03/14 02:05:10;;;;;;;17.07;15.27;;;9.10;1.00;;;;;;5077810;27;20582;-74
2024/03/14 02:07:37;;;;;;;16.40;14.70;;;9.00;1.00;;;;;;5072759;27;20476;-74
2024/03/14 02:10:06;;;;;;;16.20;14.40;;;9.00;1.00;;;;;;5075414;27;20525;-75
2024/03/14 02:12:33;;;;;;;17.33;15.63;;;9.10;1.00;;;;;;5089005;27;20956;-75
2024/03/14 02:15:02;;;;;;;17.37;15.57;;;9.20;1.00;;;;;;5077515;27;20579;-74
2024/03/14 02:17:29;;;;;;;18.10;15.60;;;9.20;1.00;;;;;;5061400;28;20456;-74
2024/03/14 02:19:56;;;;;;;16.10;14.60;;;9.20;1.00;;;;;;5069622;27;20503;-74
2024/03/14 02:22:23;;;;;;;17.60;15.53;;;9.20;1.00;;;;;;5077914;27;20514;-74
2024/03/14 02:24:51;;;;;;;22.80;17.57;;;9.30;1.00;;;;;;5066692;28;21039;-75
2024/03/14 02:27:18;;;;;;;19.60;17.50;;;9.20;1.00;;;;;;5060238;28;20461;-75
2024/03/14 02:29:45;;;;;;;20.50;17.57;;;9.20;1.00;;;;;;5068922;28;20467;-72
2024/03/14 02:32:12;;;;;;;18.40;16.50;;;9.20;1.00;;;;;;5069868;28;20857;-73
2024/03/14 02:34:39;;;;;;;20.00;17.67;;;9.30;1.00;;;;;;5071514;28;20475;-75
2024/03/14 02:37:07;;;;;;;19.77;17.77;;;9.40;1.00;;;;;;5075143;28;20507;-75
2024/03/14 02:39:34;;;;;;;22.03;17.43;;;9.40;1.00;;;;;;5064053;28;20994;-74
2024/03/14 02:42:01;;;;;;;22.73;19.63;;;9.50;1.00;;;;;;5066417;28;20451;-74
2024/03/14 02:44:28;;;;;;;21.90;19.50;;;9.50;1.00;;;;;;5073038;27;20991;-76
2024/03/14 02:46:56;;;;;;;20.73;18.53;;;9.50;1.00;;;;;;5069865;28;20450;-75
2024/03/14 02:49:23;;;;;;;22.33;19.40;;;9.50;1.00;;;;;;5050782;28;20446;-74
2024/03/14 02:51:50;;;;;;;21.00;18.80;;;9.50;1.00;;;;;;5071374;27;20426;-76
2024/03/14 02:54:17;;;;;;;23.07;19.30;;;9.60;1.00;;;;;;5072728;28;20475;-75
2024/03/14 02:56:47;;;;;;;20.93;18.67;;;9.60;1.00;;;;;;5059166;28;20541;-76
2024/03/14 02:59:14;;;;;;;20.73;18.13;;;9.60;1.00;;;;;;5063040;28;20496;-76
2024/03/14 03:01:41;;;;;;;20.60;18.27;;;9.60;1.00;;;;;;5056601;28;20461;-75
2024/03/14 03:04:09;;;;;;;21.43;18.10;;;9.60;1.00;;;;;;5050012;28;20489;-74
2024/03/14 03:06:43;;;;;;;20.73;17.87;;;9.60;1.00;;;;;;5058760;28;21949;-75
2024/03/14 03:09:10;;;;;;;19.47;17.43;;;9.50;1.00;;;;;;5072691;28;20499;-75
2024/03/14 03:11:38;;;;;;;20.80;17.33;;;9.50;1.00;;;;;;5064114;28;20660;-74
2024/03/14 03:14:05;;;;;;;22.13;18.13;;;9.50;1.00;;;;;;5078359;28;20451;-76
2024/03/14 03:16:33;;;;;;;20.57;18.10;;;9.60;1.00;;;;;;5067806;28;20497;-76
2024/03/14 03:19:00;;;;;;;19.07;16.87;;;9.60;1.00;;;;;;5068989;28;21065;-75
2024/03/14 03:21:27;;;;;;;20.80;18.60;;;9.60;1.00;;;;;;5067248;28;20457;-73
2024/03/14 03:23:53;;;;;;;20.07;17.20;;;9.60;1.00;;;;;;5066955;28;20985;-74
2024/03/14 03:26:20;;;;;;;21.77;17.90;;;9.70;1.00;;;;;;5085733;28;20467;-74
2024/03/14 03:28:47;;;;;;;24.20;19.17;;;9.70;1.00;;;;;;5068205;28;20470;-75
2024/03/14 03:31:13;;;;;;;21.07;17.87;;;9.70;1.00;;;;;;5065820;28;20450;-75
2024/03/14 03:33:40;;;;;;;21.73;18.40;;;9.70;1.00;;;;;;5056716;28;20576;-75
2024/03/14 03:36:06;;;;;;;20.03;17.90;;;9.60;1.00;;;;;;5060842;28;20532;-72
2024/03/14 03:38:33;;;;;;;20.37;17.87;;;9.60;1.00;;;;;;5053236;28;20473;-71
2024/03/14 03:41:01;;;;;;;21.17;19.03;;;9.70;1.00;;;;;;5064483;28;20490;-72
2024/03/14 03:43:28;;;;;;;23.90;19.37;;;9.70;1.00;;;;;;5065609;28;20454;-71
2024/03/14 03:45:57;;;;;;;19.17;17.20;;;9.60;1.00;;;;;;5061402;28;20462;-73
2024/03/14 03:48:23;;;;;;;21.20;19.03;;;9.60;1.00;;;;;;5061942;28;20629;-71
2024/03/14 03:50:50;;;;;;;20.40;18.27;;;9.60;1.00;;;;;;5063240;27;20454;-72
2024/03/14 03:53:16;;;;;;;20.80;18.60;;;9.70;1.00;;;;;;5059185;28;20989;-73
2024/03/14 03:55:44;;;;;;;23.87;20.30;;;9.70;1.00;;;;;;5065749;28;20844;-75
2024/03/14 03:58:11;;;;;;;21.60;19.30;;;9.70;1.00;;;;;;5069913;28;20459;-74
2024/03/14 04:00:41;;;;;;;21.00;17.47;;;9.70;1.00;;;;;;5070756;28;20462;-73
2024/03/14 04:03:11;;;;;;;21.80;19.10;;;9.80;1.00;;;;;;5065610;28;20970;-72
2024/03/14 04:05:37;;;;;;;22.07;19.30;;;9.80;1.00;;;;;;5070444;27;20461;-72
2024/03/14 04:08:04;;;;;;;20.77;18.20;;;9.80;1.00;;;;;;5066248;28;20534;-72
2024/03/14 04:10:31;;;;;;;22.87;19.43;;;9.80;1.00;;;;;;5061653;28;20457;-72
2024/03/14 04:13:00;;;;;;;23.90;20.03;;;9.80;1.00;;;;;;5070228;28;20455;-72
2024/03/14 04:15:28;;;;;;;23.03;19.23;;;9.80;1.00;;;;;;5063210;28;20477;-72
2024/03/14 04:17:55;;;;;;;21.33;19.03;;;9.90;1.00;;;;;;5067567;28;20489;-71
2024/03/14 04:20:23;;;;;;;25.77;20.70;;;9.90;1.00;;;;;;5064389;28;22619;-71
2024/03/14 04:22:53;;;;;;;24.20;20.77;;;10.00;1.00;;;;;;5063553;27;20458;-73
2024/03/14 04:25:20;;;;;;;24.73;20.23;;;10.00;1.00;;;;;;5065409;28;20530;-72
2024/03/14 04:27:51;;;;;;;23.47;20.40;;;9.90;1.00;;;;;;5073545;27;20441;-71
2024/03/14 04:30:20;;;;;;;24.70;21.87;;;10.00;1.00;;;;;;5071445;28;20555;-71
2024/03/14 04:32:47;;;;;;;24.53;21.07;;;9.90;1.00;;;;;;5070120;28;20462;-73
2024/03/14 04:35:15;;;;;;;24.33;20.90;;;9.90;1.00;;;;;;5065623;28;20476;-72
2024/03/14 04:37:42;;;;;;;27.60;21.80;;;9.90;1.00;;;;;;5070871;28;20467;-72
2024/03/14 04:40:11;;;;;;;24.90;21.23;;;10.00;1.00;;;;;;5065923;28;20454;-74
2024/03/14 04:42:41;;;;;;;23.93;21.37;;;9.90;1.00;;;;;;5064492;28;20982;-72
2024/03/14 04:45:09;;;;;;;32.27;23.37;;;9.90;1.00;;;;;;5065782;27;20541;-71
2024/03/14 04:47:36;;;;;;;30.63;23.40;;;9.80;1.00;;;;;;5067042;28;20475;-72
2024/03/14 04:50:04;;;;;;;31.30;23.33;;;9.90;1.00;;;;;;5049668;28;20545;-71
2024/03/14 04:52:31;;;;;;;30.67;21.80;;;10.00;1.00;;;;;;5052762;28;20509;-70
2024/03/14 04:54:58;;;;;;;27.40;21.77;;;10.00;1.00;;;;;;5054505;28;20485;-71
2024/03/14 04:57:25;;;;;;;25.70;22.07;;;10.00;1.00;;;;;;5064007;28;21347;-71
2024/03/14 04:59:52;;;;;;;25.83;21.67;;;10.00;1.00;;;;;;5056585;27;21065;-70
2024/03/14 05:02:19;;;;;;;30.50;22.17;;;10.10;1.00;;;;;;5076023;27;20448;-74
2024/03/14 05:04:46;;;;;;;32.93;24.93;;;10.10;1.00;;;;;;5081029;27;20949;-72
2024/03/14 05:07:13;;;;;;;26.90;21.60;;;10.20;1.00;;;;;;5074914;27;21182;-70
2024/03/14 05:09:41;;;;;;;27.97;22.67;;;10.20;1.00;;;;;;5056737;28;23280;-71
2024/03/14 05:12:08;;;;;;;25.93;21.70;;;10.20;1.00;;;;;;5058218;28;20558;-74
2024/03/14 05:14:37;;;;;;;29.20;23.13;;;10.10;1.00;;;;;;5069637;28;20443;-72
2024/03/14 05:17:04;;;;;;;30.63;25.00;;;10.10;1.00;;;;;;5071897;27;20486;-73
2024/03/14 05:19:31;;;;;;;31.40;23.70;;;10.20;1.00;;;;;;5059879;28;20530;-71
2024/03/14 05:21:58;;;;;;;30.17;25.23;;;10.10;1.00;;;;;;5056259;28;20552;-70
2024/03/14 05:24:25;;;;;;;31.47;25.60;;;10.10;1.00;;;;;;5059500;27;20499;-69
2024/03/14 05:26:52;;;;;;;28.13;22.93;;;10.10;1.00;;;;;;5061026;28;21321;-78
2024/03/14 05:29:19;;;;;;;31.83;24.20;;;10.20;1.00;;;;;;5054336;27;20454;-71
2024/03/14 05:31:46;;;;;;;31.83;25.50;;;10.20;1.00;;;;;;5073688;27;20458;-70
2024/03/14 05:34:13;;;;;;;35.00;25.97;;;10.20;1.00;;;;;;5075794;27;20446;-71
2024/03/14 05:36:41;;;;;;;32.33;22.90;;;10.20;1.00;;;;;;5077410;27;21067;-71
2024/03/14 05:39:08;;;;;;;32.97;24.10;;;10.10;1.00;;;;;;5059685;28;20502;-73
2024/03/14 05:41:36;;;;;;;28.00;22.87;;;10.20;1.00;;;;;;5063726;28;20512;-72
2024/03/14 05:44:03;;;;;;;35.60;25.10;;;10.20;1.00;;;;;;5068045;28;20451;-70
2024/03/14 05:46:30;;;;;;;32.03;25.67;;;10.40;1.00;;;;;;5078252;28;20498;-71
2024/03/14 05:48:57;;;;;;;35.23;27.27;;;10.30;1.00;;;;;;5065063;28;20454;-73
2024/03/14 05:51:24;;;;;;;33.70;24.60;;;10.20;1.00;;;;;;5057801;28;20541;-70
2024/03/14 05:53:51;;;;;;;37.87;28.50;;;10.30;1.00;;;;;;5071699;28;20491;-76
2024/03/14 05:56:18;;;;;;;36.27;26.83;;;10.30;1.00;;;;;;5068714;28;20597;-74
2024/03/14 05:58:45;;;;;;;34.50;24.73;;;10.40;1.00;;;;;;5058710;28;21218;-74
2024/03/14 06:01:13;;;;;;;31.83;23.10;;;10.50;1.00;;;;;;5058748;27;20847;-74
2024/03/14 06:03:42;;;;;;;30.03;23.87;;;10.50;1.00;;;;;;5076646;27;20897;-74
2024/03/14 06:06:10;;;;;;;34.37;25.50;;;10.40;1.00;;;;;;5062924;27;21415;-75
2024/03/14 06:08:38;;;;;;;36.00;23.90;;;10.40;1.00;;;;;;5068605;28;20454;-78
2024/03/14 06:11:05;;;;;;;34.50;24.60;;;10.40;1.00;;;;;;5069402;28;20548;-75
2024/03/14 06:13:33;;;;;;;34.83;24.40;;;10.60;1.00;;;;;;5071806;28;20453;-78
2024/03/14 06:16:02;;;;;;;33.47;24.30;;;10.60;1.00;;;;;;5067468;28;20444;-77
2024/03/14 06:18:29;;;;;;;30.47;25.27;;;10.60;1.00;;;;;;5068110;28;20458;-77
2024/03/14 06:20:56;;;;;;;30.17;25.37;;;10.70;1.00;;;;;;5064827;28;20499;-76
2024/03/14 06:23:23;;;;;;;31.70;24.20;;;10.70;1.00;;;;;;5071524;27;20506;-74
2024/03/14 06:25:50;;;;;;;29.87;23.60;;;10.70;1.00;;;;;;5056441;28;20514;-76
2024/03/14 06:28:17;;;;;;;31.07;24.53;;;10.70;1.00;;;;;;5063635;28;20465;-75
2024/03/14 06:30:47;;;;;;;34.33;25.33;;;10.80;1.00;;;;;;5065097;27;21111;-74
2024/03/14 06:33:15;;;;;;;34.67;24.83;;;10.80;1.00;;;;;;5058305;28;21162;-76
2024/03/14 06:35:42;;;;;;;34.20;25.90;;;10.90;1.00;;;;;;5071683;28;20474;-78
2024/03/14 06:38:10;;;;;;;31.63;24.33;;;11.00;1.00;;;;;;5073163;28;20558;-80
2024/03/14 06:40:37;;;;;;;35.37;26.90;;;11.00;1.00;;;;;;5071424;28;20463;-75
2024/03/14 06:43:07;;;;;;;30.93;24.30;;;11.10;1.00;;;;;;5069327;28;20448;-77
2024/03/14 06:45:34;;;;;;;32.13;24.30;;;11.30;1.00;;;;;;5056513;27;20519;-80
2024/03/14 06:48:03;;;;;;;29.60;24.10;;;11.30;1.00;;;;;;5069847;28;20455;-79
2024/03/14 06:50:31;;;;;;;33.30;24.23;;;11.30;1.00;;;;;;5072023;28;20465;-77
2024/03/14 06:52:58;;;;;;;33.10;24.97;;;11.40;1.00;;;;;;5071585;27;20546;-79
2024/03/14 06:55:26;;;;;;;30.03;22.33;;;11.40;1.00;;;;;;5070656;28;21005;-78
2024/03/14 06:57:54;;;;;;;31.37;23.80;;;11.50;1.00;;;;;;5074649;28;21028;-78
2024/03/14 07:00:24;;;;;;;31.47;24.20;;;11.50;1.00;;;;;;5057704;28;20575;-77
2024/03/14 07:02:52;;;;;;;31.40;23.23;;;11.50;1.00;;;;;;5075766;27;20453;-76
2024/03/14 07:05:24;;;;;;;30.40;23.73;;;11.50;1.00;;;;;;5061695;27;20515;-77
2024/03/14 07:07:51;;;;;;;30.67;23.40;;;11.50;1.00;;;;;;5073781;27;21117;-75
2024/03/14 07:10:19;;;;;;;33.43;24.57;;;11.60;1.00;;;;;;5060795;28;20495;-74
2024/03/14 07:12:46;;;;;;;32.20;23.00;;;11.70;1.00;;;;;;5062675;28;20466;-74
2024/03/14 07:15:13;;;;;;;30.67;22.90;;;11.80;1.00;;;;;;5053812;28;20462;-75
2024/03/14 07:17:40;;;;;;;30.80;21.57;;;11.80;1.00;;;;;;5056081;28;20494;-75
2024/03/14 07:20:16;;;;;;;30.60;23.77;;;11.90;1.00;;;;;;5053201;28;20459;-74
2024/03/14 07:22:43;;;;;;;29.17;23.50;;;12.00;1.00;;;;;;5059569;28;20563;-75
2024/03/14 07:25:13;;;;;;;27.07;22.57;;;12.00;1.00;;;;;;5069019;28;20472;-76
2024/03/14 07:27:40;;;;;;;28.37;23.17;;;12.10;1.00;;;;;;5068693;27;20482;-75
2024/03/14 07:30:13;;;;;;;28.70;23.70;;;12.20;1.00;;;;;;5075801;27;20451;-74
2024/03/14 07:32:40;;;;;;;29.80;24.03;;;12.20;1.00;;;;;;5078158;27;20897;-75
2024/03/14 07:35:08;;;;;;;27.07;21.57;;;12.30;1.00;;;;;;5074886;27;20487;-73
2024/03/14 07:37:36;;;;;;;29.53;23.27;;;12.40;1.00;;;;;;5075793;28;20463;-73
2024/03/14 07:40:04;;;;;;;29.33;23.70;;;12.40;1.00;;;;;;5075023;27;20745;-75
2024/03/14 07:42:31;;;;;;;25.93;21.80;;;12.40;1.00;;;;;;5076325;27;20454;-74
2024/03/14 07:44:58;;;;;;;28.77;22.03;;;12.50;1.00;;;;;;5068926;27;20470;-73
2024/03/14 07:47:25;;;;;;;27.17;22.30;;;12.50;1.00;;;;;;5067376;27;21822;-76
2024/03/14 07:49:53;;;;;;;26.50;21.73;;;12.60;1.00;;;;;;5074354;27;20499;-74
2024/03/14 07:52:20;;;;;;;28.43;21.07;;;12.60;1.00;;;;;;5074505;27;21179;-74
2024/03/14 07:54:47;;;;;;;28.37;21.90;;;12.60;1.00;;;;;;5060869;28;20556;-74
2024/03/14 07:57:15;;;;;;;28.87;22.33;;;12.60;1.00;;;;;;5071509;28;20959;-74
2024/03/14 07:59:42;;;;;;;30.23;22.07;;;12.60;1.00;;;;;;5065260;28;20527;-74
2024/03/14 08:02:10;;;;;;;23.37;19.33;;;12.70;1.00;;;;;;5076659;28;20584;-76
2024/03/14 08:04:38;;;;;;;23.40;19.90;;;12.80;1.00;;;;;;5069526;28;20474;-74
2024/03/14 08:07:10;;;;;;;23.63;19.13;;;12.70;1.00;;;;;;5070503;27;20836;-74
2024/03/14 08:09:38;;;;;;;27.67;21.77;;;12.80;1.00;;;;;;5057362;28;20467;-75
2024/03/14 08:12:06;;;;;;;27.03;20.23;;;12.80;1.00;;;;;;5052197;28;20468;-74
2024/03/14 08:14:34;;;;;;;25.80;21.53;;;12.70;1.00;;;;;;5065677;28;20470;-74
2024/03/14 08:17:06;;;;;;;22.70;18.93;;;12.80;1.00;;;;;;5065217;28;20469;-75
2024/03/14 08:19:34;;;;;;;26.80;20.17;;;12.90;1.00;;;;;;5074177;27;20960;-74
2024/03/14 08:22:04;;;;;;;25.17;20.87;;;12.80;1.00;;;;;;5069919;28;20568;-74
2024/03/14 08:24:41;;;;;;;23.73;19.47;;;12.90;1.00;;;;;;5067249;28;20877;-74
2024/03/14 08:27:09;;;;;;;24.37;19.90;;;12.90;1.00;;;;;;5070760;28;21715;-78
2024/03/14 08:29:37;;;;;;;25.87;19.63;;;13.00;1.00;;;;;;5069857;28;20454;-75
2024/03/14 08:32:04;;;;;;;24.50;18.93;;;13.10;1.00;;;;;;5066834;28;20952;-75
2024/03/14 08:34:31;;;;;;;25.90;20.60;;;13.10;1.00;;;;;;5067810;28;21621;-75
2024/03/14 08:37:00;;;;;;;25.77;21.43;;;13.20;1.00;;;;;;5066551;28;20528;-75
2024/03/14 08:39:27;;;;;;;24.73;20.60;;;13.10;1.00;;;;;;5067678;28;20466;-74
2024/03/14 08:41:54;;;;;;;25.50;20.43;;;13.10;1.00;;;;;;5072206;28;20945;-75
2024/03/14 08:44:23;;;;;;;24.60;20.03;;;13.00;1.00;;;;;;5070646;28;20997;-74
2024/03/14 08:46:51;;;;;;;26.70;19.53;;;13.10;1.00;;;;;;5073156;27;20463;-75
2024/03/14 08:49:18;;;;;;;25.23;19.13;;;13.10;1.00;;;;;;5055906;28;20461;-75
2024/03/14 08:51:45;;;;;;;24.90;19.77;;;13.30;1.00;;;;;;5056058;28;20539;-76
2024/03/14 08:56:53;;;;;;;23.93;20.03;;;13.30;1.00;;;;;;5076457;27;20444;-75
2024/03/14 08:59:22;;;;;;;24.07;19.83;;;13.40;1.00;;;;;;5084169;27;20495;-75
2024/03/14 09:01:50;;;;;;;24.80;19.27;;;13.40;1.00;;;;;;5076991;27;20499;-76
2024/03/14 09:04:17;;;;;;;26.10;20.23;;;13.40;1.00;;;;;;5072200;28;20548;-75
2024/03/14 09:06:45;;;;;;;26.13;20.73;;;13.50;1.00;;;;;;5059065;28;20504;-74
2024/03/14 09:09:23;;;;;;;25.20;19.80;;;13.50;1.00;;;;;;5052785;28;20594;-74
2024/03/14 09:11:51;;;;;;;24.90;19.00;;;13.40;1.00;;;;;;5062949;28;20563;-73
2024/03/14 09:14:18;;;;;;;23.60;19.13;;;13.40;1.00;;;;;;5055697;28;20585;-75
2024/03/14 09:16:45;;;;;;;24.20;20.00;;;13.60;1.00;;;;;;5054715;28;20902;-74
2024/03/14 09:19:15;;;;;;;28.33;21.07;;;13.80;1.00;;;;;;5057107;28;20925;-75
2024/03/14 09:21:42;;;;;;;31.30;19.37;;;13.90;1.00;;;;;;5055620;28;21650;-75
2024/03/14 09:24:12;;;;;;;26.73;19.87;;;14.20;1.00;;;;;;5056537;28;20998;-75
2024/03/14 09:26:42;;;;;;;23.27;17.93;;;14.20;1.00;;;;;;5073232;28;20469;-75
2024/03/14 09:29:11;;;;;;;20.80;18.27;;;14.20;1.00;;;;;;5071165;28;20556;-75
2024/03/14 09:31:40;;;;;;;26.67;18.50;;;14.10;1.00;;;;;;5061019;28;20511;-77
2024/03/14 09:34:09;;;;;;;23.17;18.97;;;14.30;1.00;;;;;;5071508;27;20546;-75
2024/03/14 09:36:36;;;;;;;25.87;19.30;;;14.30;1.00;;;;;;5061807;28;20541;-73
2024/03/14 09:39:13;;;;;;;24.63;18.40;;;14.20;1.00;;;;;;5055749;28;20504;-75
2024/03/14 09:41:40;;;;;;;18.93;16.87;;;14.40;1.00;;;;;;5080654;27;20600;-75
2024/03/14 09:44:07;;;;;;;27.83;18.70;;;14.60;1.00;;;;;;5071675;27;20496;-74
2024/03/14 09:46:35;;;;;;;27.80;20.27;;;14.80;1.00;;;;;;5078738;27;20981;-74
2024/03/14 09:49:03;;;;;;;22.73;18.43;;;15.00;1.00;;;;;;5078292;27;20476;-75
2024/03/14 09:51:30;;;;;;;22.90;17.30;;;15.00;1.00;;;;;;5076304;27;20465;-73
2024/03/14 09:53:58;;;;;;;31.03;19.57;;;15.20;1.00;;;;;;5079068;27;20473;-74
2024/03/14 09:56:25;;;;;;;25.50;17.80;;;15.50;1.00;;;;;;5057295;28;21911;-74
2024/03/14 09:58:53;;;;;;;37.80;20.10;;;15.70;1.00;;;;;;5055445;28;20473;-74
2024/03/14 10:01:20;;;;;;;26.90;18.20;;;15.80;1.00;;;;;;5056149;28;20470;-74
2024/03/14 10:03:47;;;;;;;22.27;15.80;;;15.80;1.00;;;;;;5075849;27;20465;-74
2024/03/14 10:06:17;;;;;;;21.00;16.63;;;15.90;1.00;;;;;;5065781;28;20483;-74
2024/03/14 10:08:48;;;;;;;17.23;15.40;;;15.70;1.00;;;;;;5079437;27;20956;-74
2024/03/14 10:11:18;;;;;;;20.10;16.90;;;15.80;1.00;;;;;;5076384;27;20530;-75
2024/03/14 10:13:46;;;;;;;18.63;16.60;;;16.30;1.00;;;;;;5062058;28;20498;-74
2024/03/14 10:16:14;;;;;;;22.43;16.73;;;16.70;1.00;;;;;;5053565;28;20574;-73
2024/03/14 10:18:42;;;;;;;18.00;15.83;;;16.90;1.00;;;;;;5055879;28;20491;-74
2024/03/14 10:21:09;;;;;;;24.53;16.90;;;17.00;1.00;;;;;;5057805;27;20452;-75
2024/03/14 10:23:37;;;;;;;26.07;17.40;;;17.00;1.00;;;;;;5061725;28;20556;-76
2024/03/14 10:26:04;;;;;;;27.00;17.00;;;17.20;1.00;;;;;;5053097;28;20458;-74
2024/03/14 10:28:33;;;;;;;17.60;15.07;;;17.20;1.00;;;;;;5057960;28;21002;-74
2024/03/14 10:31:04;;;;;;;19.73;15.53;;;17.30;1.00;;;;;;5076165;28;20466;-75
2024/03/14 10:33:32;;;;;;;17.33;15.23;;;17.10;1.00;;;;;;5057186;28;20467;-74
2024/03/14 10:35:59;;;;;;;18.00;15.13;;;17.10;1.00;;;;;;5072585;28;20525;-75
2024/03/14 10:38:26;;;;;;;17.80;14.83;;;17.30;1.00;;;;;;5072617;27;20465;-73
2024/03/14 10:40:57;;;;;;;21.10;15.47;;;17.60;1.00;;;;;;5076937;27;20485;-78
2024/03/14 10:43:26;;;;;;;17.63;15.43;;;17.80;1.00;;;;;;5074190;27;21400;-73
2024/03/14 10:45:53;;;;;;;22.13;15.40;;;17.70;1.00;;;;;;5074300;27;20441;-73
2024/03/14 10:48:23;;;;;;;18.97;16.13;;;17.80;1.00;;;;;;5065352;28;20470;-75
2024/03/14 10:50:54;;;;;;;17.70;15.00;;;17.70;1.00;;;;;;5070243;28;21314;-75
2024/03/14 10:53:25;;;;;;;17.40;14.40;;;17.40;1.00;;;;;;5054657;28;20468;-73
2024/03/14 10:55:55;;;;;;;17.90;16.00;;;17.30;1.00;;;;;;5065268;27;20460;-73
2024/03/14 10:58:22;;;;;;;23.03;16.70;;;17.30;1.00;;;;;;5069265;28;20586;-76
2024/03/14 11:00:49;;;;;;;15.00;13.40;;;17.60;1.00;;;;;;5069820;28;21402;-73
2024/03/14 11:03:18;;;;;;;15.77;13.83;;;17.60;1.00;;;;;;5069413;27;20553;-74
2024/03/14 11:05:48;;;;;;;19.47;15.60;;;17.50;1.00;;;;;;5075694;28;20472;-75
2024/03/14 11:08:16;;;;;;;18.40;14.43;;;17.10;1.00;;;;;;5068929;27;20446;-74
2024/03/14 11:10:43;;;;;;;15.83;13.97;;;17.10;1.00;;;;;;5064021;28;20928;-75
2024/03/14 11:13:12;;;;;;;17.63;12.27;;;17.30;1.00;;;;;;5059546;28;21519;-73
2024/03/14 11:15:39;;;;;;;17.13;13.30;;;17.60;1.00;;;;;;5060215;28;20449;-76
2024/03/14 11:18:07;;;;;;;13.20;11.80;;;17.80;1.00;;;;;;5073732;27;20484;-74
2024/03/14 11:20:35;;;;;;;11.47;9.30;;;17.90;1.00;;;;;;5076244;27;20869;-74
2024/03/14 11:23:03;;;;;;;9.03;7.63;;;18.00;1.00;;;;;;5066217;27;20652;-71
2024/03/14 11:25:30;;;;;;;14.57;8.90;;;18.10;1.00;;;;;;5072658;27;20976;-75
2024/03/14 11:27:57;;;;;;;8.40;7.50;;;18.10;1.00;;;;;;5070723;28;20516;-75
2024/03/14 11:30:25;;;;;;;12.87;8.23;;;18.20;1.00;;;;;;5067926;28;20509;-74
2024/03/14 11:32:55;;;;;;;9.77;7.90;;;18.30;1.00;;;;;;5061911;28;20861;-72
2024/03/14 11:35:43;;;;;;;9.60;8.53;;;18.50;1.00;;;;;;5055549;28;20432;-74
2024/03/14 11:38:28;;;;;;;8.40;7.60;;;18.40;1.00;;;;;;5067361;28;20564;-74
2024/03/14 11:40:55;;;;;;;9.90;8.00;;;18.40;1.00;;;;;;5045403;28;20472;-75
2024/03/14 11:43:22;;;;;;;6.63;5.87;;;18.80;1.00;;;;;;5053884;28;20484;-75
2024/03/14 11:45:55;;;;;;;10.30;7.47;;;19.20;1.00;;;;;;5061321;27;20472;-75
2024/03/14 11:48:23;;;;;;;9.00;7.77;;;19.90;1.00;;;;;;5053435;28;20447;-73
2024/03/14 11:50:52;;;;;;;16.77;9.53;;;20.50;1.00;;;;;;5064804;28;20435;-73
2024/03/14 11:53:20;;;;;;;10.57;8.23;;;20.80;1.00;;;;;;5068545;28;20460;-76
2024/03/14 11:55:48;;;;;;;9.43;7.20;;;20.90;1.00;;;;;;5073868;27;20477;-76
2024/03/14 11:58:15;;;;;;;7.67;6.87;;;20.60;1.00;;;;;;5063697;28;20458;-78
2024/03/14 12:00:42;;;;;;;11.63;9.43;;;20.20;1.00;;;;;;5066510;28;20534;-78
2024/03/14 12:03:11;;;;;;;7.33;5.83;;;20.00;1.00;;;;;;5076050;27;20576;-77
2024/03/14 12:05:44;;;;;;;4.50;4.10;;;19.90;1.00;;;;;;5076233;27;20451;-78
2024/03/14 12:08:12;;;;;;;6.70;4.60;;;20.80;1.00;;;;;;5074966;27;20456;-77
2024/03/14 12:10:39;;;;;;;6.03;5.43;;;23.10;1.00;;;;;;5074261;28;20580;-76
2024/03/14 12:13:13;;;;;;;7.37;6.37;;;24.90;1.00;;;;;;5056024;28;20465;-74
2024/03/14 12:15:41;;;;;;;11.63;6.83;;;25.10;1.00;;;;;;5055886;28;20456;-73
2024/03/14 12:18:10;;;;;;;8.93;6.83;;;24.40;1.00;;;;;;5065954;28;20464;-78
2024/03/14 12:20:38;;;;;;;6.90;6.20;;;24.50;1.00;;;;;;5071473;28;20472;-78
2024/03/14 12:23:07;;;;;;;10.47;7.07;;;26.30;1.00;;;;;;5069125;28;20468;-79
2024/03/14 12:25:37;;;;;;;6.00;5.50;;;27.00;1.00;;;;;;5067258;28;20460;-76
2024/03/14 12:28:04;;;;;;;6.00;5.50;;;25.90;1.00;;;;;;5065005;28;20474;-76
2024/03/14 12:30:33;;;;;;;9.13;6.73;;;24.40;1.00;;;;;;5071824;28;20563;-76
2024/03/14 12:33:01;;;;;;;7.50;5.63;;;23.10;1.00;;;;;;5067117;28;20471;-76
2024/03/14 12:35:28;;;;;;;5.67;5.07;;;21.50;1.00;;;;;;5068376;28;20544;-77
2024/03/14 12:37:55;;;;;;;7.70;4.97;;;20.60;1.00;;;;;;5064606;28;20526;-77
2024/03/14 12:40:22;;;;;;;5.23;4.63;;;19.90;1.00;;;;;;5055507;28;21045;-76
2024/03/14 12:42:50;;;;;;;6.70;4.90;;;19.30;1.00;;;;;;5054356;28;20489;-75
2024/03/14 12:45:17;;;;;;;6.70;4.60;;;18.80;1.00;;;;;;5056317;28;20464;-76
2024/03/14 12:47:47;;;;;;;8.57;6.57;;;18.50;1.00;;;;;;5063216;28;20469;-75